W24 weather

Falwell Airport
Lynchburg, Virginia, United States

Public forecast

Using degrees Fahrenheit for public forecast. Weather courtesy of forecast.io.

Closest aviation weather report (METAR) to Falwell Airport

Closest report is Lynchburg Regional Preston Glenn Field, 4.8 nm (9.0 km) SW. Retrieved 2020/04/02 05:54 UTC (10 minutes ago):

KLYH 020554Z AUTO 30004KT 10SM FEW070 07/02 A2996 RMK AO2 SLP144 60000 T00720022 10111 20061 51011

Closest aviation forecast (TAF) to Falwell Airport

Closest forecast is Lynchburg Regional Preston Glenn Field, 4.8 nm (9.0 km) SW. Retrieved 2020/04/02 06:52 UTC (0 seconds ago):

TAF KLYH 020540Z 0206/0306 31005KT P6SM SCT070 FM021400 32008KT P6SM SKC FM021500 32009G17KT P6SM SKC FM021900 32011G20KT P6SM SKC FM022300 32009KT P6SM SKC